sensor_id;sensor_type;location;lat;lon;timestamp;temperature;humidity
13496;DHT22;6820;49.374;8.452;2022-07-23T00:03:51;26.51;93.69
13496;DHT22;6820;49.374;8.452;2022-07-23T00:07:55;26.46;94.18
13496;DHT22;6820;49.374;8.452;2022-07-23T00:11:57;26.21;94.23
13496;DHT22;6820;49.374;8.452;2022-07-23T00:15:58;26.00;94.77
13496;DHT22;6820;49.374;8.452;2022-07-23T00:20:00;25.81;95.71
13496;DHT22;6820;49.374;8.452;2022-07-23T00:24:02;25.72;96.11
13496;DHT22;6820;49.374;8.452;2022-07-23T00:28:04;25.63;95.86
13496;DHT22;6820;49.374;8.452;2022-07-23T00:32:06;25.60;96.05
13496;DHT22;6820;49.374;8.452;2022-07-23T00:36:07;25.54;96.25
13496;DHT22;6820;49.374;8.452;2022-07-23T00:40:10;25.48;96.05
13496;DHT22;6820;49.374;8.452;2022-07-23T00:44:16;25.46;96.00
13496;DHT22;6820;49.374;8.452;2022-07-23T00:48:22;25.48;95.80
13496;DHT22;6820;49.374;8.452;2022-07-23T00:52:24;25.45;95.80
13496;DHT22;6820;49.374;8.452;2022-07-23T00:56:26;25.39;96.00
13496;DHT22;6820;49.374;8.452;2022-07-23T01:00:28;25.45;96.10
13496;DHT22;6820;49.374;8.452;2022-07-23T01:04:30;25.45;95.60
13496;DHT22;6820;49.374;8.452;2022-07-23T01:08:32;25.46;95.60
13496;DHT22;6820;49.374;8.452;2022-07-23T01:12:33;25.44;95.60
13496;DHT22;6820;49.374;8.452;2022-07-23T01:16:35;25.41;95.80
13496;DHT22;6820;49.374;8.452;2022-07-23T01:20:37;25.42;96.30
13496;DHT22;6820;49.374;8.452;2022-07-23T01:24:41;25.39;96.69
13496;DHT22;6820;49.374;8.452;2022-07-23T01:28:43;25.31;96.69
13496;DHT22;6820;49.374;8.452;2022-07-23T01:32:45;25.30;96.79
13496;DHT22;6820;49.374;8.452;2022-07-23T01:36:47;25.22;97.09
13496;DHT22;6820;49.374;8.452;2022-07-23T01:40:50;25.09;97.44
13496;DHT22;6820;49.374;8.452;2022-07-23T01:44:59;25.07;97.63
13496;DHT22;6820;49.374;8.452;2022-07-23T01:49:01;25.01;98.13
13496;DHT22;6820;49.374;8.452;2022-07-23T01:53:22;24.93;98.58
13496;DHT22;6820;49.374;8.452;2022-07-23T01:57:24;24.90;98.77
13496;DHT22;6820;49.374;8.452;2022-07-23T02:01:25;24.83;98.97
13496;DHT22;6820;49.374;8.452;2022-07-23T02:05:27;24.67;99.57
13496;DHT22;6820;49.374;8.452;2022-07-23T02:09:33;24.55;99.91
13496;DHT22;6820;49.374;8.452;2022-07-23T02:13:34;24.56;99.96
13496;DHT22;6820;49.374;8.452;2022-07-23T02:17:36;24.51;99.99
13496;DHT22;6820;49.374;8.452;2022-07-23T02:21:38;24.48;99.99
13496;DHT22;6820;49.374;8.452;2022-07-23T02:25:40;24.44;99.99
13496;DHT22;6820;49.374;8.452;2022-07-23T02:29:42;24.41;99.99
13496;DHT22;6820;49.374;8.452;2022-07-23T02:33:43;24.37;99.99
13496;DHT22;6820;49.374;8.452;2022-07-23T02:37:45;24.36;99.99
13496;DHT22;6820;49.374;8.452;2022-07-23T02:41:48;24.45;99.99
13496;DHT22;6820;49.374;8.452;2022-07-23T02:45:50;24.44;99.99
13496;DHT22;6820;49.374;8.452;2022-07-23T02:49:52;24.52;99.99
13496;DHT22;6820;49.374;8.452;2022-07-23T02:53:54;24.60;99.99
13496;DHT22;6820;49.374;8.452;2022-07-23T02:57:55;24.68;99.99
13496;DHT22;6820;49.374;8.452;2022-07-23T03:01:57;24.77;99.99
13496;DHT22;6820;49.374;8.452;2022-07-23T03:05:59;24.75;99.99
13496;DHT22;6820;49.374;8.452;2022-07-23T03:10:00;24.79;99.99
13496;DHT22;6820;49.374;8.452;2022-07-23T03:14:02;24.80;99.99
13496;DHT22;6820;49.374;8.452;2022-07-23T03:18:04;24.77;99.99
13496;DHT22;6820;49.374;8.452;2022-07-23T03:22:06;24.66;99.99
13496;DHT22;6820;49.374;8.452;2022-07-23T03:26:07;24.61;99.99
13496;DHT22;6820;49.374;8.452;2022-07-23T03:30:09;24.51;99.99
13496;DHT22;6820;49.374;8.452;2022-07-23T03:34:11;24.41;99.99
13496;DHT22;6820;49.374;8.452;2022-07-23T03:38:13;24.36;99.99
13496;DHT22;6820;49.374;8.452;2022-07-23T03:42:15;24.27;99.99
13496;DHT22;6820;49.374;8.452;2022-07-23T03:46:19;24.29;99.99
13496;DHT22;6820;49.374;8.452;2022-07-23T03:50:21;24.36;99.99
13496;DHT22;6820;49.374;8.452;2022-07-23T03:54:23;24.39;99.99
13496;DHT22;6820;49.374;8.452;2022-07-23T03:58:25;24.45;99.99
13496;DHT22;6820;49.374;8.452;2022-07-23T04:02:27;24.39;99.99
13496;DHT22;6820;49.374;8.452;2022-07-23T04:06:29;24.31;99.99
13496;DHT22;6820;49.374;8.452;2022-07-23T04:10:33;24.26;99.99
13496;DHT22;6820;49.374;8.452;2022-07-23T04:14:37;24.26;99.99
13496;DHT22;6820;49.374;8.452;2022-07-23T04:18:38;24.23;99.99
13496;DHT22;6820;49.374;8.452;2022-07-23T04:22:46;24.15;99.99
13496;DHT22;6820;49.374;8.452;2022-07-23T04:26:48;24.04;99.99
13496;DHT22;6820;49.374;8.452;2022-07-23T04:30:49;24.00;99.99
13496;DHT22;6820;49.374;8.452;2022-07-23T04:34:52;23.90;99.99
13496;DHT22;6820;49.374;8.452;2022-07-23T04:38:54;23.89;99.99
13496;DHT22;6820;49.374;8.452;2022-07-23T04:42:56;23.81;99.99
13496;DHT22;6820;49.374;8.452;2022-07-23T04:46:58;23.64;99.99
13496;DHT22;6820;49.374;8.452;2022-07-23T04:51:00;23.50;99.99
13496;DHT22;6820;49.374;8.452;2022-07-23T04:55:04;23.41;99.99
13496;DHT22;6820;49.374;8.452;2022-07-23T04:59:06;23.31;99.99
13496;DHT22;6820;49.374;8.452;2022-07-23T05:03:07;23.32;99.99
13496;DHT22;6820;49.374;8.452;2022-07-23T05:07:09;23.26;99.99
13496;DHT22;6820;49.374;8.452;2022-07-23T05:11:11;23.15;99.99
13496;DHT22;6820;49.374;8.452;2022-07-23T05:15:13;23.01;99.99
13496;DHT22;6820;49.374;8.452;2022-07-23T05:19:15;23.01;99.99
13496;DHT22;6820;49.374;8.452;2022-07-23T05:23:17;22.99;99.99
13496;DHT22;6820;49.374;8.452;2022-07-23T05:27:19;22.97;99.99
13496;DHT22;6820;49.374;8.452;2022-07-23T05:31:21;23.00;99.99
13496;DHT22;6820;49.374;8.452;2022-07-23T05:35:23;22.99;99.99
13496;DHT22;6820;49.374;8.452;2022-07-23T05:39:41;22.96;99.99
13496;DHT22;6820;49.374;8.452;2022-07-23T05:43:43;23.03;99.99
13496;DHT22;6820;49.374;8.452;2022-07-23T05:47:47;23.11;99.99
13496;DHT22;6820;49.374;8.452;2022-07-23T05:52:02;23.21;99.99
13496;DHT22;6820;49.374;8.452;2022-07-23T05:56:25;23.29;99.99
13496;DHT22;6820;49.374;8.452;2022-07-23T06:00:27;23.39;99.99
13496;DHT22;6820;49.374;8.452;2022-07-23T06:04:29;23.49;99.99
13496;DHT22;6820;49.374;8.452;2022-07-23T06:08:49;23.52;99.99
13496;DHT22;6820;49.374;8.452;2022-07-23T06:12:51;23.52;99.99
13496;DHT22;6820;49.374;8.452;2022-07-23T06:16:58;23.32;99.99
13496;DHT22;6820;49.374;8.452;2022-07-23T06:21:00;23.21;99.99
13496;DHT22;6820;49.374;8.452;2022-07-23T06:25:09;23.11;99.99
13496;DHT22;6820;49.374;8.452;2022-07-23T06:29:19;23.21;99.99
13496;DHT22;6820;49.374;8.452;2022-07-23T06:33:21;23.25;99.99
13496;DHT22;6820;49.374;8.452;2022-07-23T06:37:23;23.21;99.99
13496;DHT22;6820;49.374;8.452;2022-07-23T06:41:25;23.23;99.99
13496;DHT22;6820;49.374;8.452;2022-07-23T06:45:27;23.34;99.99
13496;DHT22;6820;49.374;8.452;2022-07-23T06:49:28;23.29;99.99
13496;DHT22;6820;49.374;8.452;2022-07-23T06:53:31;23.23;99.99
13496;DHT22;6820;49.374;8.452;2022-07-23T06:57:33;23.31;99.99
13496;DHT22;6820;49.374;8.452;2022-07-23T07:01:35;23.41;99.99
13496;DHT22;6820;49.374;8.452;2022-07-23T07:05:37;23.45;99.99
13496;DHT22;6820;49.374;8.452;2022-07-23T07:09:38;23.59;99.99
13496;DHT22;6820;49.374;8.452;2022-07-23T07:13:40;23.86;99.99
13496;DHT22;6820;49.374;8.452;2022-07-23T07:17:41;24.04;99.99
13496;DHT22;6820;49.374;8.452;2022-07-23T07:21:43;24.09;99.99
13496;DHT22;6820;49.374;8.452;2022-07-23T07:25:45;24.18;99.99
13496;DHT22;6820;49.374;8.452;2022-07-23T07:29:47;24.27;99.99
13496;DHT22;6820;49.374;8.452;2022-07-23T07:33:48;24.14;99.99
13496;DHT22;6820;49.374;8.452;2022-07-23T07:37:50;24.26;99.99
13496;DHT22;6820;49.374;8.452;2022-07-23T07:41:52;24.48;99.99
13496;DHT22;6820;49.374;8.452;2022-07-23T07:45:53;24.74;99.99
13496;DHT22;6820;49.374;8.452;2022-07-23T07:49:55;24.93;99.99
13496;DHT22;6820;49.374;8.452;2022-07-23T07:53:57;25.01;99.99
13496;DHT22;6820;49.374;8.452;2022-07-23T07:57:59;25.02;99.99
13496;DHT22;6820;49.374;8.452;2022-07-23T08:02:02;25.02;99.99
13496;DHT22;6820;49.374;8.452;2022-07-23T08:06:04;25.07;99.99
13496;DHT22;6820;49.374;8.452;2022-07-23T08:10:09;25.30;99.99
13496;DHT22;6820;49.374;8.452;2022-07-23T08:14:11;25.24;99.99
13496;DHT22;6820;49.374;8.452;2022-07-23T08:18:13;24.97;99.99
13496;DHT22;6820;49.374;8.452;2022-07-23T08:22:14;24.86;99.99
13496;DHT22;6820;49.374;8.452;2022-07-23T08:26:16;24.84;99.99
13496;DHT22;6820;49.374;8.452;2022-07-23T08:30:17;24.70;99.99
13496;DHT22;6820;49.374;8.452;2022-07-23T08:34:20;24.89;99.99
13496;DHT22;6820;49.374;8.452;2022-07-23T08:38:21;25.19;99.99
13496;DHT22;6820;49.374;8.452;2022-07-23T08:42:23;25.24;99.99
13496;DHT22;6820;49.374;8.452;2022-07-23T08:46:26;25.31;99.99
13496;DHT22;6820;49.374;8.452;2022-07-23T08:50:29;25.27;99.99
13496;DHT22;6820;49.374;8.452;2022-07-23T08:54:31;25.39;99.99
13496;DHT22;6820;49.374;8.452;2022-07-23T08:58:33;25.41;99.99
13496;DHT22;6820;49.374;8.452;2022-07-23T09:02:38;25.64;99.99
13496;DHT22;6820;49.374;8.452;2022-07-23T09:06:42;25.97;99.99
13496;DHT22;6820;49.374;8.452;2022-07-23T09:10:45;26.20;99.99
13496;DHT22;6820;49.374;8.452;2022-07-23T09:14:47;26.21;99.99
13496;DHT22;6820;49.374;8.452;2022-07-23T09:18:52;26.09;99.99
13496;DHT22;6820;49.374;8.452;2022-07-23T09:23:14;26.21;99.99
13496;DHT22;6820;49.374;8.452;2022-07-23T09:27:16;26.11;99.99
13496;DHT22;6820;49.374;8.452;2022-07-23T09:31:18;26.31;99.99
13496;DHT22;6820;49.374;8.452;2022-07-23T09:35:20;26.47;99.99
13496;DHT22;6820;49.374;8.452;2022-07-23T09:39:26;26.49;99.99
13496;DHT22;6820;49.374;8.452;2022-07-23T09:43:27;26.57;99.99
13496;DHT22;6820;49.374;8.452;2022-07-23T09:47:35;26.69;99.99
13496;DHT22;6820;49.374;8.452;2022-07-23T09:51:44;26.81;99.99
13496;DHT22;6820;49.374;8.452;2022-07-23T09:55:53;26.91;99.99
13496;DHT22;6820;49.374;8.452;2022-07-23T10:00:04;27.03;99.99
13496;DHT22;6820;49.374;8.452;2022-07-23T10:04:07;27.24;99.99
13496;DHT22;6820;49.374;8.452;2022-07-23T10:08:44;27.33;99.99
13496;DHT22;6820;49.374;8.452;2022-07-23T10:13:14;27.13;99.99
13496;DHT22;6820;49.374;8.452;2022-07-23T10:17:49;27.01;99.99
13496;DHT22;6820;49.374;8.452;2022-07-23T10:21:52;27.12;99.99
13496;DHT22;6820;49.374;8.452;2022-07-23T10:26:32;27.16;99.99
13496;DHT22;6820;49.374;8.452;2022-07-23T10:30:36;27.38;99.93
13496;DHT22;6820;49.374;8.452;2022-07-23T10:39:03;27.72;99.14
13496;DHT22;6820;49.374;8.452;2022-07-23T10:43:13;27.84;98.21
13496;DHT22;6820;49.374;8.452;2022-07-23T10:47:28;27.95;98.50
13496;DHT22;6820;49.374;8.452;2022-07-23T10:56:15;28.36;97.56
13496;DHT22;6820;49.374;8.452;2022-07-23T11:00:20;28.40;95.64
13496;DHT22;6820;49.374;8.452;2022-07-23T11:04:47;28.57;94.76
13496;DHT22;6820;49.374;8.452;2022-07-23T11:09:03;28.48;94.31
13496;DHT22;6820;49.374;8.452;2022-07-23T11:13:49;28.72;95.40
13496;DHT22;6820;49.374;8.452;2022-07-23T11:21:52;29.47;93.78
13496;DHT22;6820;49.374;8.452;2022-07-23T11:25:54;29.58;92.55
13496;DHT22;6820;49.374;8.452;2022-07-23T11:29:55;29.49;91.67
13496;DHT22;6820;49.374;8.452;2022-07-23T11:38:33;30.01;90.94
13496;DHT22;6820;49.374;8.452;2022-07-23T11:42:40;30.34;90.01
13496;DHT22;6820;49.374;8.452;2022-07-23T11:46:57;30.60;89.57
13496;DHT22;6820;49.374;8.452;2022-07-23T11:51:01;30.79;87.46
13496;DHT22;6820;49.374;8.452;2022-07-23T11:55:03;30.85;85.46
13496;DHT22;6820;49.374;8.452;2022-07-23T11:59:12;31.15;85.36
13496;DHT22;6820;49.374;8.452;2022-07-23T12:03:14;31.04;87.14
13496;DHT22;6820;49.374;8.452;2022-07-23T12:07:30;31.22;87.18
13496;DHT22;6820;49.374;8.452;2022-07-23T12:11:39;31.01;87.04
13496;DHT22;6820;49.374;8.452;2022-07-23T12:15:57;31.18;87.08
13496;DHT22;6820;49.374;8.452;2022-07-23T12:20:00;31.10;86.65
13496;DHT22;6820;49.374;8.452;2022-07-23T12:24:05;31.01;86.10
13496;DHT22;6820;49.374;8.452;2022-07-23T12:32:23;30.59;87.08
13496;DHT22;6820;49.374;8.452;2022-07-23T12:36:38;30.45;87.27
13496;DHT22;6820;49.374;8.452;2022-07-23T12:40:42;30.67;86.77
13496;DHT22;6820;49.374;8.452;2022-07-23T12:49:09;30.75;86.73
13496;DHT22;6820;49.374;8.452;2022-07-23T12:53:16;30.53;86.24
13496;DHT22;6820;49.374;8.452;2022-07-23T12:57:44;30.03;88.74
13496;DHT22;6820;49.374;8.452;2022-07-23T13:01:56;29.82;90.50
13496;DHT22;6820;49.374;8.452;2022-07-23T13:06:00;29.85;91.43
13496;DHT22;6820;49.374;8.452;2022-07-23T13:10:04;29.91;90.25
13496;DHT22;6820;49.374;8.452;2022-07-23T13:14:06;30.03;89.81
13496;DHT22;6820;49.374;8.452;2022-07-23T13:18:09;30.30;90.20
13496;DHT22;6820;49.374;8.452;2022-07-23T13:22:12;30.23;88.49
13496;DHT22;6820;49.374;8.452;2022-07-23T13:26:13;30.08;88.39
13496;DHT22;6820;49.374;8.452;2022-07-23T13:30:16;29.97;88.63
13496;DHT22;6820;49.374;8.452;2022-07-23T13:34:19;30.06;88.53
13496;DHT22;6820;49.374;8.452;2022-07-23T13:38:21;30.07;87.35
13496;DHT22;6820;49.374;8.452;2022-07-23T13:42:22;30.21;88.34
13496;DHT22;6820;49.374;8.452;2022-07-23T13:46:24;30.60;88.20
13496;DHT22;6820;49.374;8.452;2022-07-23T13:50:27;30.73;87.17
13496;DHT22;6820;49.374;8.452;2022-07-23T13:54:34;30.73;86.34
13496;DHT22;6820;49.374;8.452;2022-07-23T13:58:36;30.64;87.03
13496;DHT22;6820;49.374;8.452;2022-07-23T14:02:38;30.36;86.83
13496;DHT22;6820;49.374;8.452;2022-07-23T14:06:42;30.16;88.10
13496;DHT22;6820;49.374;8.452;2022-07-23T14:10:51;30.28;88.78
13496;DHT22;6820;49.374;8.452;2022-07-23T14:14:52;30.68;93.40
13496;DHT22;6820;49.374;8.452;2022-07-23T14:18:54;30.61;91.25
13496;DHT22;6820;49.374;8.452;2022-07-23T14:22:56;30.78;90.02
13496;DHT22;6820;49.374;8.452;2022-07-23T14:27:01;30.48;86.83
